Time;durP1;ratioP1;P1;durP2;ratioP2;P2;SDS_P1;SDS_P2;PMS_P1;PMS_P2;Temp;Humidity;BMP_temperature;BMP_pressure;BME280_temperature;BME280_humidity;BME280_pressure;Samples;Min_cycle;Max_cycle;Signal;HPM_P1;HPM_P2
2024/01/24 00:01:25;;;;;;;5.68;1.67;;;;;;;;;;5091291;28;20147;-86
2024/01/24 00:03:51;;;;;;;1.77;1.50;;;;;;;;;;5090110;28;20462;-88
2024/01/24 00:06:19;;;;;;;2.30;1.67;;;;;;;;;;5091228;28;20032;-87
2024/01/24 00:08:45;;;;;;;3.03;1.52;;;;;;;;;;5072817;28;20043;-87
2024/01/24 00:11:11;;;;;;;1.55;1.45;;;;;;;;;;5074860;28;20488;-87
2024/01/24 00:13:37;;;;;;;1.95;1.48;;;;;;;;;;5090232;28;20094;-91
2024/01/24 00:16:04;;;;;;;4.53;1.33;;;;;;;;;;5090964;28;20040;-86
2024/01/24 00:18:30;;;;;;;2.28;1.45;;;;;;;;;;5090721;28;20067;-87
2024/01/24 00:20:56;;;;;;;2.38;1.30;;;;;;;;;;5074016;28;20090;-87
2024/01/24 00:23:23;;;;;;;3.53;1.45;;;;;;;;;;5089081;28;20547;-89
2024/01/24 00:25:49;;;;;;;2.60;1.67;;;;;;;;;;5090876;28;20093;-88
2024/01/24 00:28:16;;;;;;;0.93;0.93;;;;;;;;;;5075265;28;20036;-87
2024/01/24 00:30:42;;;;;;;1.20;1.10;;;;;;;;;;5074102;28;20064;-87
2024/01/24 00:33:09;;;;;;;3.35;1.25;;;;;;;;;;5074542;28;20043;-86
2024/01/24 00:35:35;;;;;;;4.28;1.92;;;;;;;;;;5089517;28;20043;-86
2024/01/24 00:38:01;;;;;;;4.30;2.10;;;;;;;;;;5091905;28;20385;-88
2024/01/24 00:40:27;;;;;;;5.95;1.73;;;;;;;;;;5095595;28;20044;-87
2024/01/24 00:42:53;;;;;;;5.35;1.05;;;;;;;;;;5099078;28;20035;-90
2024/01/24 00:45:19;;;;;;;3.80;1.40;;;;;;;;;;5081728;28;20028;-87
2024/01/24 00:47:45;;;;;;;4.95;1.38;;;;;;;;;;5082257;28;20069;-88
2024/01/24 00:50:11;;;;;;;4.80;1.73;;;;;;;;;;5099567;28;20092;-88
2024/01/24 00:52:37;;;;;;;2.22;1.23;;;;;;;;;;5086861;28;20071;-88
2024/01/24 00:55:04;;;;;;;4.53;1.48;;;;;;;;;;5094150;28;20043;-89
2024/01/24 00:57:30;;;;;;;2.60;1.30;;;;;;;;;;5074200;28;20044;-88
2024/01/24 00:59:57;;;;;;;1.17;1.08;;;;;;;;;;5073906;28;20036;-87
2024/01/24 01:02:23;;;;;;;2.33;1.40;;;;;;;;;;5073252;28;20040;-86
2024/01/24 01:04:49;;;;;;;2.88;0.95;;;;;;;;;;5073283;28;20032;-87
2024/01/24 01:07:15;;;;;;;1.90;0.98;;;;;;;;;;5089538;28;20047;-88
2024/01/24 01:09:41;;;;;;;2.17;0.90;;;;;;;;;;5089225;28;20077;-89
2024/01/24 01:12:07;;;;;;;1.98;0.93;;;;;;;;;;5074833;28;20036;-88
2024/01/24 01:14:33;;;;;;;1.70;1.40;;;;;;;;;;5073094;28;20040;-87
2024/01/24 01:16:59;;;;;;;1.77;0.65;;;;;;;;;;5072672;28;20032;-88
2024/01/24 01:19:25;;;;;;;0.90;0.60;;;;;;;;;;5087298;28;20075;-88
2024/01/24 01:21:51;;;;;;;2.17;0.95;;;;;;;;;;5089919;28;20036;-87
2024/01/24 01:24:17;;;;;;;3.30;1.02;;;;;;;;;;5089673;28;20036;-87
2024/01/24 01:26:43;;;;;;;0.77;0.70;;;;;;;;;;5073061;28;20503;-88
2024/01/24 01:29:09;;;;;;;3.45;1.45;;;;;;;;;;5090769;28;20036;-87
2024/01/24 01:31:35;;;;;;;0.65;0.30;;;;;;;;;;5090068;28;20040;-90
2024/01/24 01:34:02;;;;;;;1.02;0.55;;;;;;;;;;5071566;28;20032;-89
2024/01/24 01:36:28;;;;;;;1.35;0.57;;;;;;;;;;5090091;28;20119;-89
2024/01/24 01:38:54;;;;;;;0.85;0.30;;;;;;;;;;5074255;28;20036;-87
2024/01/24 01:41:20;;;;;;;3.13;0.93;;;;;;;;;;5089807;28;20032;-87
2024/01/24 01:43:46;;;;;;;1.35;0.40;;;;;;;;;;5072948;28;20032;-87
2024/01/24 01:46:19;;;;;;;1.38;0.70;;;;;;;;;;5094882;28;20043;-87
2024/01/24 01:48:45;;;;;;;0.80;0.32;;;;;;;;;;5096828;28;20505;-87
2024/01/24 01:51:11;;;;;;;1.20;0.50;;;;;;;;;;5096159;28;20048;-86
2024/01/24 01:53:38;;;;;;;1.40;0.30;;;;;;;;;;5093164;28;20044;-88
2024/01/24 01:56:11;;;;;;;0.80;0.50;;;;;;;;;;5078336;28;20043;-85
2024/01/24 01:58:38;;;;;;;1.75;0.70;;;;;;;;;;5095352;28;20404;-88
2024/01/24 02:01:08;;;;;;;0.55;0.45;;;;;;;;;;5079340;28;20092;-85
2024/01/24 02:03:34;;;;;;;1.20;0.80;;;;;;;;;;5094796;28;20039;-87
2024/01/24 02:06:01;;;;;;;3.83;0.90;;;;;;;;;;5073294;28;20083;-88
2024/01/24 02:08:27;;;;;;;0.85;0.70;;;;;;;;;;5093467;28;20110;-87
2024/01/24 02:10:53;;;;;;;1.40;0.47;;;;;;;;;;5073055;28;20101;-86
2024/01/24 02:13:20;;;;;;;1.38;0.60;;;;;;;;;;5076005;28;20036;-89
2024/01/24 02:15:46;;;;;;;1.58;0.52;;;;;;;;;;5076601;28;20057;-88
2024/01/24 02:18:12;;;;;;;1.90;0.50;;;;;;;;;;5093768;28;20036;-87
2024/01/24 02:20:38;;;;;;;1.83;0.65;;;;;;;;;;5075405;28;20048;-87
2024/01/24 02:23:04;;;;;;;1.52;0.82;;;;;;;;;;5076715;28;20057;-87
2024/01/24 02:25:30;;;;;;;1.27;0.65;;;;;;;;;;5092327;28;20043;-86
2024/01/24 02:27:56;;;;;;;3.45;0.82;;;;;;;;;;5092474;28;20044;-85
2024/01/24 02:30:22;;;;;;;1.58;0.65;;;;;;;;;;5093460;28;20096;-86
2024/01/24 02:32:48;;;;;;;2.60;0.65;;;;;;;;;;5089825;28;20047;-87
2024/01/24 02:35:14;;;;;;;4.70;0.50;;;;;;;;;;5076253;28;20485;-89
2024/01/24 02:37:40;;;;;;;3.10;0.63;;;;;;;;;;5074606;28;20065;-86
2024/01/24 02:40:06;;;;;;;2.47;0.63;;;;;;;;;;5074793;28;20031;-89
2024/01/24 02:42:33;;;;;;;4.05;0.50;;;;;;;;;;5091415;28;20042;-87
2024/01/24 02:44:59;;;;;;;1.45;0.68;;;;;;;;;;5092770;28;20036;-86
2024/01/24 02:47:25;;;;;;;2.38;0.82;;;;;;;;;;5075521;28;20043;-87
2024/01/24 02:49:52;;;;;;;2.30;0.50;;;;;;;;;;5092573;28;20062;-89
2024/01/24 02:52:18;;;;;;;2.53;0.95;;;;;;;;;;5071193;28;20040;-88
2024/01/24 02:54:44;;;;;;;3.53;1.10;;;;;;;;;;5092460;28;20497;-90
2024/01/24 02:57:10;;;;;;;2.95;1.05;;;;;;;;;;5092502;28;20082;-88
2024/01/24 02:59:36;;;;;;;6.70;2.03;;;;;;;;;;5076100;28;20028;-87
2024/01/24 03:02:02;;;;;;;5.40;1.45;;;;;;;;;;5092104;28;20067;-89
2024/01/24 03:04:28;;;;;;;6.43;2.08;;;;;;;;;;5075474;28;20035;-88
2024/01/24 03:06:55;;;;;;;7.72;1.95;;;;;;;;;;5091313;28;20476;-91
2024/01/24 03:09:22;;;;;;;5.72;1.58;;;;;;;;;;5092826;28;20056;-90
2024/01/24 03:11:48;;;;;;;4.10;0.85;;;;;;;;;;5074545;28;20077;-90
2024/01/24 03:14:14;;;;;;;9.30;2.15;;;;;;;;;;5076335;28;20500;-88
2024/01/24 03:16:40;;;;;;;6.55;1.90;;;;;;;;;;5074370;28;20032;-86
2024/01/24 03:19:07;;;;;;;4.85;1.42;;;;;;;;;;5076005;28;20036;-90
2024/01/24 03:21:33;;;;;;;8.02;2.30;;;;;;;;;;5076018;28;20032;-87
2024/01/24 03:24:00;;;;;;;4.78;1.60;;;;;;;;;;5075120;28;20034;-89
2024/01/24 03:26:26;;;;;;;5.80;1.77;;;;;;;;;;5073589;28;22444;-89
2024/01/24 03:28:52;;;;;;;8.50;1.85;;;;;;;;;;5075520;28;20503;-91
2024/01/24 03:31:18;;;;;;;12.18;2.25;;;;;;;;;;5074765;28;20043;-90
2024/01/24 03:33:45;;;;;;;8.95;1.90;;;;;;;;;;5091862;28;20534;-89
2024/01/24 03:36:11;;;;;;;6.47;1.95;;;;;;;;;;5092677;28;20404;-87
2024/01/24 03:38:37;;;;;;;7.22;2.13;;;;;;;;;;5074093;28;20115;-88
2024/01/24 03:41:03;;;;;;;1.92;1.05;;;;;;;;;;5074264;28;20492;-90
2024/01/24 03:43:29;;;;;;;5.47;1.40;;;;;;;;;;5079314;28;20055;-88
2024/01/24 03:45:55;;;;;;;5.53;1.70;;;;;;;;;;5100712;28;20035;-87
2024/01/24 03:48:21;;;;;;;7.45;1.73;;;;;;;;;;5100263;28;20069;-90
2024/01/24 03:50:47;;;;;;;5.95;2.10;;;;;;;;;;5107592;28;20071;-88
2024/01/24 03:53:13;;;;;;;4.65;1.45;;;;;;;;;;5087044;28;20126;-87
2024/01/24 03:55:39;;;;;;;8.50;2.55;;;;;;;;;;5083624;28;20040;-86
2024/01/24 03:58:05;;;;;;;4.63;1.33;;;;;;;;;;5109591;28;20024;-89
2024/01/24 04:00:31;;;;;;;10.18;2.47;;;;;;;;;;5096494;28;20028;-87
2024/01/24 04:02:57;;;;;;;7.35;2.25;;;;;;;;;;5111815;28;20063;-87
2024/01/24 04:05:23;;;;;;;2.45;1.42;;;;;;;;;;5110442;28;20040;-89
2024/01/24 04:07:49;;;;;;;9.80;3.15;;;;;;;;;;5092984;28;20071;-88
2024/01/24 04:10:16;;;;;;;3.67;1.27;;;;;;;;;;5094130;28;20066;-86
2024/01/24 04:12:42;;;;;;;7.60;1.80;;;;;;;;;;5092258;28;20016;-88
2024/01/24 04:15:08;;;;;;;10.30;2.38;;;;;;;;;;5091845;28;20480;-86
2024/01/24 04:17:34;;;;;;;6.38;2.38;;;;;;;;;;5076290;28;20078;-90
2024/01/24 04:20:01;;;;;;;11.93;2.45;;;;;;;;;;5092993;28;20036;-90
2024/01/24 04:22:27;;;;;;;10.32;2.55;;;;;;;;;;5091081;28;20039;-89
2024/01/24 04:24:53;;;;;;;13.27;3.10;;;;;;;;;;5075700;28;20399;-89
2024/01/24 04:27:19;;;;;;;6.30;2.35;;;;;;;;;;5076538;28;20488;-88
2024/01/24 04:29:45;;;;;;;13.77;2.63;;;;;;;;;;5100904;28;20062;-88
2024/01/24 04:32:11;;;;;;;18.17;3.47;;;;;;;;;;5095364;28;20119;-89
2024/01/24 04:34:37;;;;;;;10.77;2.30;;;;;;;;;;5099423;28;20540;-88
2024/01/24 04:37:03;;;;;;;8.32;2.38;;;;;;;;;;5098673;28;20044;-89
2024/01/24 04:39:30;;;;;;;13.82;3.55;;;;;;;;;;5078705;28;20028;-89
2024/01/24 04:41:56;;;;;;;12.68;3.35;;;;;;;;;;5095951;28;20357;-88
2024/01/24 04:44:22;;;;;;;9.25;2.80;;;;;;;;;;5095851;28;20040;-90
2024/01/24 04:46:48;;;;;;;5.45;1.27;;;;;;;;;;5076790;28;20036;-90
2024/01/24 04:49:14;;;;;;;10.15;2.38;;;;;;;;;;5093343;28;20051;-87
2024/01/24 04:51:41;;;;;;;9.63;2.90;;;;;;;;;;5090329;28;20061;-88
2024/01/24 04:54:07;;;;;;;16.13;3.95;;;;;;;;;;5073518;28;20039;-86
2024/01/24 04:56:34;;;;;;;13.82;4.97;;;;;;;;;;5074030;28;20035;-87
2024/01/24 04:59:00;;;;;;;10.32;3.45;;;;;;;;;;5090692;28;20039;-85
2024/01/24 05:01:26;;;;;;;12.32;2.65;;;;;;;;;;5090872;28;20376;-88
2024/01/24 05:03:53;;;;;;;14.85;3.05;;;;;;;;;;5071950;28;20028;-89
2024/01/24 05:06:19;;;;;;;11.07;2.80;;;;;;;;;;5074068;28;20028;-87
2024/01/24 05:08:45;;;;;;;9.50;2.95;;;;;;;;;;5088948;28;20123;-88
2024/01/24 05:11:11;;;;;;;17.23;4.70;;;;;;;;;;5089809;28;20114;-86
2024/01/24 05:13:37;;;;;;;9.82;1.95;;;;;;;;;;5089268;28;20060;-87
2024/01/24 05:16:03;;;;;;;18.42;3.92;;;;;;;;;;5073723;28;20377;-88
2024/01/24 05:18:29;;;;;;;18.55;3.63;;;;;;;;;;5071716;28;20135;-88
2024/01/24 05:20:55;;;;;;;20.45;5.20;;;;;;;;;;5072806;28;20389;-88
2024/01/24 05:23:21;;;;;;;17.88;5.20;;;;;;;;;;5073823;28;20139;-87
2024/01/24 05:25:47;;;;;;;8.05;1.90;;;;;;;;;;5090072;28;20040;-87
2024/01/24 05:28:14;;;;;;;12.60;3.90;;;;;;;;;;5072983;28;20043;-88
2024/01/24 05:30:40;;;;;;;18.30;3.08;;;;;;;;;;5089813;28;20500;-88
2024/01/24 05:33:06;;;;;;;13.25;3.92;;;;;;;;;;5089606;28;20502;-88
2024/01/24 05:35:32;;;;;;;8.45;2.35;;;;;;;;;;5073414;28;20112;-89
2024/01/24 05:37:59;;;;;;;12.63;3.20;;;;;;;;;;5090038;28;20377;-88
2024/01/24 05:40:25;;;;;;;12.52;4.05;;;;;;;;;;5073890;28;20039;-90
2024/01/24 05:42:50;;;;;;;11.65;2.83;;;;;;;;;;5072565;28;20071;-87
2024/01/24 05:45:16;;;;;;;18.90;4.63;;;;;;;;;;5103576;28;20064;-86
2024/01/24 05:47:43;;;;;;;14.35;3.30;;;;;;;;;;5071823;28;20036;-88
2024/01/24 05:50:12;;;;;;;15.07;3.75;;;;;;;;;;5074785;28;20036;-87
2024/01/24 05:52:45;;;;;;;9.75;3.40;;;;;;;;;;5088615;28;20078;-87
2024/01/24 05:55:14;;;;;;;14.25;3.20;;;;;;;;;;5090259;28;20127;-88
2024/01/24 05:57:40;;;;;;;17.40;3.97;;;;;;;;;;5072236;28;20401;-88
2024/01/24 06:00:13;;;;;;;17.67;5.03;;;;;;;;;;5089178;28;20044;-86
2024/01/24 06:02:40;;;;;;;13.75;3.95;;;;;;;;;;5088399;28;20449;-87
2024/01/24 06:05:07;;;;;;;13.50;3.35;;;;;;;;;;5069586;28;20035;-86
2024/01/24 06:07:34;;;;;;;12.02;3.60;;;;;;;;;;5088810;28;20392;-85
2024/01/24 06:10:00;;;;;;;20.58;5.00;;;;;;;;;;5070941;28;20059;-84
2024/01/24 06:12:26;;;;;;;14.07;3.55;;;;;;;;;;5071372;28;20083;-84
2024/01/24 06:14:55;;;;;;;16.08;3.53;;;;;;;;;;5090421;28;20479;-87
2024/01/24 06:17:21;;;;;;;15.38;3.63;;;;;;;;;;5066495;28;20515;-85
2024/01/24 06:19:47;;;;;;;15.15;4.97;;;;;;;;;;5088782;28;20044;-85
2024/01/24 06:22:13;;;;;;;15.52;3.03;;;;;;;;;;5087352;28;20429;-86
2024/01/24 06:24:39;;;;;;;15.05;5.15;;;;;;;;;;5065796;28;20127;-89
2024/01/24 06:27:05;;;;;;;12.55;3.42;;;;;;;;;;5087724;28;20104;-84
2024/01/24 06:29:31;;;;;;;16.58;3.47;;;;;;;;;;5086573;28;20044;-85
2024/01/24 06:31:57;;;;;;;12.23;3.35;;;;;;;;;;5084693;28;20036;-86
2024/01/24 06:34:23;;;;;;;17.08;4.28;;;;;;;;;;5091483;28;20534;-84
2024/01/24 06:36:49;;;;;;;10.70;4.22;;;;;;;;;;5086900;28;20483;-88
2024/01/24 06:39:15;;;;;;;13.32;4.40;;;;;;;;;;5075981;28;20060;-87
2024/01/24 06:41:42;;;;;;;20.63;2.97;;;;;;;;;;5074298;28;20028;-83
2024/01/24 06:44:08;;;;;;;10.85;3.05;;;;;;;;;;5094375;28;20036;-89
2024/01/24 06:46:41;;;;;;;13.88;4.70;;;;;;;;;;5093050;28;20042;-88
2024/01/24 06:49:10;;;;;;;17.80;4.88;;;;;;;;;;5092609;28;20028;-86
2024/01/24 06:51:37;;;;;;;19.25;4.80;;;;;;;;;;5090789;28;20047;-84
2024/01/24 06:54:03;;;;;;;24.58;5.72;;;;;;;;;;5093140;28;20103;-86
2024/01/24 06:56:29;;;;;;;10.63;2.78;;;;;;;;;;5094342;28;20036;-86
2024/01/24 06:58:55;;;;;;;12.57;3.35;;;;;;;;;;5096242;28;20046;-88
2024/01/24 07:01:21;;;;;;;23.30;4.28;;;;;;;;;;5079827;28;20126;-87
2024/01/24 07:03:48;;;;;;;19.45;3.25;;;;;;;;;;5095800;28;21008;-85
2024/01/24 07:06:14;;;;;;;13.00;3.90;;;;;;;;;;5078722;28;20068;-85
2024/01/24 07:08:40;;;;;;;16.05;5.20;;;;;;;;;;5074556;28;20075;-88
2024/01/24 07:11:06;;;;;;;28.77;5.65;;;;;;;;;;5090856;28;20055;-84
2024/01/24 07:13:32;;;;;;;10.35;3.20;;;;;;;;;;5091615;28;20040;-89
2024/01/24 07:16:00;;;;;;;20.65;4.95;;;;;;;;;;5074229;28;20043;-87
2024/01/24 07:18:26;;;;;;;9.05;2.35;;;;;;;;;;5091541;28;20047;-85
2024/01/24 07:20:53;;;;;;;14.80;4.32;;;;;;;;;;5070632;28;20055;-85
2024/01/24 07:23:19;;;;;;;15.35;5.38;;;;;;;;;;5087483;28;20043;-87
2024/01/24 07:25:45;;;;;;;16.08;3.03;;;;;;;;;;5092111;28;20040;-84
2024/01/24 07:28:11;;;;;;;14.30;5.35;;;;;;;;;;5075684;28;20046;-88
2024/01/24 07:30:37;;;;;;;16.67;3.70;;;;;;;;;;5072950;28;20032;-83
2024/01/24 07:33:04;;;;;;;15.50;4.95;;;;;;;;;;5091875;28;20492;-86
2024/01/24 07:35:31;;;;;;;17.85;4.72;;;;;;;;;;5071365;28;20032;-86
2024/01/24 07:37:57;;;;;;;19.80;5.55;;;;;;;;;;5084217;28;20083;-87
2024/01/24 07:40:24;;;;;;;17.13;4.95;;;;;;;;;;5073183;28;20036;-84
2024/01/24 07:42:50;;;;;;;17.63;6.00;;;;;;;;;;5087301;28;20079;-86
2024/01/24 07:45:16;;;;;;;14.93;5.30;;;;;;;;;;5090399;28;20036;-86
2024/01/24 07:47:43;;;;;;;15.68;4.60;;;;;;;;;;5087568;28;20061;-88
2024/01/24 07:50:11;;;;;;;20.02;5.68;;;;;;;;;;5119983;27;20052;-88
2024/01/24 07:52:37;;;;;;;23.48;6.03;;;;;;;;;;5090152;28;20044;-87
2024/01/24 07:55:03;;;;;;;21.55;5.18;;;;;;;;;;5107941;28;20044;-87
2024/01/24 07:57:29;;;;;;;16.88;4.75;;;;;;;;;;5090684;28;20131;-85
2024/01/24 07:59:55;;;;;;;15.32;4.97;;;;;;;;;;5089102;28;20070;-86
2024/01/24 08:02:21;;;;;;;17.58;4.03;;;;;;;;;;5089374;28;20071;-84
2024/01/24 08:04:48;;;;;;;16.08;4.53;;;;;;;;;;5072151;28;20511;-87
2024/01/24 08:07:14;;;;;;;18.65;4.72;;;;;;;;;;5073109;28;20032;-86
2024/01/24 08:09:40;;;;;;;12.35;3.58;;;;;;;;;;5088457;28;20212;-84
2024/01/24 08:12:06;;;;;;;21.50;5.53;;;;;;;;;;5092870;28;20044;-86
2024/01/24 08:14:32;;;;;;;11.88;2.28;;;;;;;;;;5073975;28;20043;-86
2024/01/24 08:17:10;;;;;;;18.25;4.40;;;;;;;;;;5093959;28;20463;-86
2024/01/24 08:19:36;;;;;;;22.08;5.18;;;;;;;;;;5076308;28;20074;-85
2024/01/24 08:22:03;;;;;;;14.43;4.90;;;;;;;;;;5093523;28;20485;-88
2024/01/24 08:24:29;;;;;;;20.15;5.35;;;;;;;;;;5077864;28;20404;-88
2024/01/24 08:26:56;;;;;;;19.30;4.82;;;;;;;;;;5077852;28;20529;-89
2024/01/24 08:29:25;;;;;;;23.95;5.97;;;;;;;;;;5079829;28;20061;-87
2024/01/24 08:31:51;;;;;;;13.20;4.10;;;;;;;;;;5113218;28;20497;-88
2024/01/24 08:34:17;;;;;;;15.82;3.53;;;;;;;;;;5092314;28;20435;-89
2024/01/24 08:36:44;;;;;;;22.80;6.50;;;;;;;;;;5089539;28;20039;-87
2024/01/24 08:39:10;;;;;;;20.52;5.10;;;;;;;;;;5089954;28;20082;-88
2024/01/24 08:41:37;;;;;;;21.92;5.90;;;;;;;;;;5073089;28;20488;-86
2024/01/24 08:44:04;;;;;;;15.88;5.05;;;;;;;;;;5069691;28;20032;-88
2024/01/24 08:46:30;;;;;;;22.27;5.28;;;;;;;;;;5070590;28;20036;-87
2024/01/24 08:48:56;;;;;;;8.07;2.75;;;;;;;;;;5071357;28;20055;-88
2024/01/24 08:51:25;;;;;;;14.55;3.15;;;;;;;;;;5089278;28;20140;-84
2024/01/24 08:53:51;;;;;;;16.13;3.38;;;;;;;;;;5086929;28;20055;-89
2024/01/24 08:56:17;;;;;;;20.55;5.53;;;;;;;;;;5067735;28;20028;-88
2024/01/24 08:58:43;;;;;;;20.30;5.60;;;;;;;;;;5088029;28;20048;-88
2024/01/24 09:01:09;;;;;;;11.13;3.15;;;;;;;;;;5090836;28;20374;-90
2024/01/24 09:03:35;;;;;;;16.85;5.78;;;;;;;;;;5090091;28;20400;-87
2024/01/24 09:06:01;;;;;;;21.90;5.45;;;;;;;;;;5090659;28;20032;-89
2024/01/24 09:08:27;;;;;;;17.95;5.60;;;;;;;;;;5089770;28;20052;-86
2024/01/24 09:10:53;;;;;;;22.20;5.95;;;;;;;;;;5071911;28;20376;-85
2024/01/24 09:13:22;;;;;;;10.02;3.60;;;;;;;;;;5090229;28;20042;-85
2024/01/24 09:15:48;;;;;;;12.68;4.72;;;;;;;;;;5087617;28;20044;-86
2024/01/24 09:18:14;;;;;;;11.00;3.20;;;;;;;;;;5071018;28;20093;-85
2024/01/24 09:20:40;;;;;;;16.15;4.28;;;;;;;;;;5088146;28;20098;-87
2024/01/24 09:23:06;;;;;;;11.43;3.10;;;;;;;;;;5089663;28;20032;-86
2024/01/24 09:25:32;;;;;;;16.02;3.72;;;;;;;;;;5090479;28;20093;-87
2024/01/24 09:27:58;;;;;;;18.83;5.03;;;;;;;;;;5074304;28;20043;-87
2024/01/24 09:30:25;;;;;;;9.13;2.30;;;;;;;;;;5073704;28;20044;-85
2024/01/24 09:32:51;;;;;;;18.98;4.38;;;;;;;;;;5072828;28;20140;-87
2024/01/24 09:35:17;;;;;;;21.58;5.68;;;;;;;;;;5073107;28;20040;-89
2024/01/24 09:37:44;;;;;;;22.92;6.15;;;;;;;;;;5072389;28;20089;-90
2024/01/24 09:40:11;;;;;;;19.50;4.45;;;;;;;;;;5073321;28;20039;-88
2024/01/24 09:42:41;;;;;;;16.55;6.30;;;;;;;;;;5071599;28;20044;-89
2024/01/24 09:45:08;;;;;;;16.17;4.25;;;;;;;;;;5090164;28;20024;-88
2024/01/24 09:47:38;;;;;;;21.25;4.63;;;;;;;;;;5072289;28;20431;-88
2024/01/24 09:50:04;;;;;;;17.02;5.07;;;;;;;;;;5089522;28;20036;-89
2024/01/24 09:52:34;;;;;;;14.98;4.65;;;;;;;;;;5072719;28;20032;-89
2024/01/24 09:55:04;;;;;;;15.05;4.13;;;;;;;;;;5087854;28;20067;-88
2024/01/24 09:57:39;;;;;;;9.50;2.83;;;;;;;;;;5085419;28;20037;-90
2024/01/24 10:00:09;;;;;;;22.65;5.55;;;;;;;;;;5073329;28;20123;-89
2024/01/24 10:02:35;;;;;;;16.75;3.72;;;;;;;;;;5069498;28;20439;-88
2024/01/24 10:05:05;;;;;;;16.02;3.05;;;;;;;;;;5092033;28;20028;-88
2024/01/24 10:07:32;;;;;;;12.68;3.38;;;;;;;;;;5110455;28;20048;-86
2024/01/24 10:10:06;;;;;;;17.45;5.78;;;;;;;;;;5098311;28;20128;-89
2024/01/24 10:12:32;;;;;;;18.63;4.07;;;;;;;;;;5098283;28;20047;-87
2024/01/24 10:15:02;;;;;;;17.45;5.75;;;;;;;;;;5079945;28;20040;-90
2024/01/24 10:17:31;;;;;;;11.23;3.20;;;;;;;;;;5089924;28;20063;-90
2024/01/24 10:20:01;;;;;;;28.00;6.50;;;;;;;;;;5076559;28;20028;-92
2024/01/24 10:22:27;;;;;;;13.48;4.13;;;;;;;;;;5076723;28;20036;-88
2024/01/24 10:24:57;;;;;;;12.63;4.05;;;;;;;;;;5092221;28;20524;-88
2024/01/24 10:27:23;;;;;;;16.67;4.82;;;;;;;;;;5076221;28;20040;-88
2024/01/24 10:29:58;;;;;;;17.55;3.92;;;;;;;;;;5059383;28;20076;-90
2024/01/24 10:32:25;;;;;;;18.15;4.47;;;;;;;;;;5075810;28;20381;-90
2024/01/24 10:34:51;;;;;;;23.15;5.88;;;;;;;;;;5075687;28;20078;-89
2024/01/24 10:37:18;;;;;;;19.92;6.03;;;;;;;;;;5076754;28;20539;-88
2024/01/24 10:39:49;;;;;;;11.75;4.07;;;;;;;;;;5075932;28;20040;-90
2024/01/24 10:42:19;;;;;;;18.67;4.63;;;;;;;;;;5076258;28;20583;-87
2024/01/24 10:44:52;;;;;;;4.90;2.22;;;;;;;;;;5093012;28;20047;-87
2024/01/24 10:47:18;;;;;;;17.00;3.20;;;;;;;;;;5093333;28;20374;-86
2024/01/24 10:49:44;;;;;;;13.40;2.95;;;;;;;;;;5093681;28;20416;-89
2024/01/24 10:52:11;;;;;;;4.50;1.92;;;;;;;;;;5093307;28;20034;-86
2024/01/24 10:54:38;;;;;;;6.95;3.13;;;;;;;;;;5092287;28;20061;-90
2024/01/24 10:57:06;;;;;;;13.50;2.55;;;;;;;;;;5076014;28;20044;-86
2024/01/24 10:59:33;;;;;;;13.93;3.88;;;;;;;;;;5092267;28;20036;-88
2024/01/24 11:01:59;;;;;;;9.15;3.45;;;;;;;;;;5091429;28;20079;-91
2024/01/24 11:04:27;;;;;;;7.88;2.50;;;;;;;;;;5075917;28;20115;-90
2024/01/24 11:06:56;;;;;;;9.15;3.78;;;;;;;;;;5075312;28;20036;-89
2024/01/24 11:09:25;;;;;;;9.60;2.50;;;;;;;;;;5092462;28;20048;-89
2024/01/24 11:11:56;;;;;;;13.50;4.40;;;;;;;;;;5074910;28;20071;-90
2024/01/24 11:14:33;;;;;;;14.38;3.83;;;;;;;;;;5089601;28;20044;-87
2024/01/24 11:17:00;;;;;;;15.23;4.85;;;;;;;;;;5075294;28;20131;-89
2024/01/24 11:19:28;;;;;;;9.75;3.80;;;;;;;;;;5091424;28;20043;-90
2024/01/24 11:21:55;;;;;;;13.10;3.35;;;;;;;;;;5074130;28;20040;-90
2024/01/24 11:24:40;;;;;;;11.93;4.22;;;;;;;;;;5090570;28;20082;-88
2024/01/24 11:27:24;;;;;;;12.95;2.90;;;;;;;;;;5091059;28;20070;-91
2024/01/24 11:29:54;;;;;;;8.10;2.80;;;;;;;;;;5087109;28;20075;-89
2024/01/24 11:32:39;;;;;;;9.02;3.00;;;;;;;;;;5069255;28;20128;-90
2024/01/24 11:35:28;;;;;;;13.35;3.45;;;;;;;;;;5088007;28;20519;-89
2024/01/24 11:38:14;;;;;;;10.18;4.50;;;;;;;;;;5072635;28;20044;-88
2024/01/24 11:40:43;;;;;;;6.82;1.88;;;;;;;;;;5108317;27;20090;-90
2024/01/24 11:43:23;;;;;;;16.52;3.67;;;;;;;;;;5073614;28;20097;-87
2024/01/24 11:45:52;;;;;;;9.05;3.20;;;;;;;;;;5070481;28;20036;-87
2024/01/24 11:48:18;;;;;;;11.88;3.00;;;;;;;;;;5075379;28;20097;-88
2024/01/24 11:50:57;;;;;;;9.65;2.78;;;;;;;;;;5090685;28;20040;-90
2024/01/24 11:53:24;;;;;;;11.93;3.70;;;;;;;;;;5074778;28;20503;-90
2024/01/24 11:55:57;;;;;;;11.30;3.65;;;;;;;;;;5074389;28;20480;-89
2024/01/24 11:58:26;;;;;;;10.18;3.50;;;;;;;;;;5074408;28;20040;-88
2024/01/24 12:00:56;;;;;;;15.93;4.13;;;;;;;;;;5090887;28;20492;-87
2024/01/24 12:03:22;;;;;;;10.95;3.60;;;;;;;;;;5092553;28;20044;-87
2024/01/24 12:05:48;;;;;;;15.88;5.00;;;;;;;;;;5074931;28;20043;-89
2024/01/24 12:08:14;;;;;;;6.95;2.05;;;;;;;;;;5073320;28;20036;-87
2024/01/24 12:10:41;;;;;;;9.55;2.72;;;;;;;;;;5087765;28;20044;-88
2024/01/24 12:13:07;;;;;;;11.68;4.00;;;;;;;;;;5076190;28;20532;-90
2024/01/24 12:15:34;;;;;;;10.15;3.00;;;;;;;;;;5093378;28;20032;-90
2024/01/24 12:18:08;;;;;;;14.68;3.45;;;;;;;;;;5078646;28;20399;-87
2024/01/24 12:20:35;;;;;;;15.57;3.90;;;;;;;;;;5097056;28;20122;-88
2024/01/24 12:23:04;;;;;;;9.95;3.15;;;;;;;;;;5096819;28;20074;-89
2024/01/24 12:25:30;;;;;;;9.52;3.20;;;;;;;;;;5101841;28;20023;-90
2024/01/24 12:28:01;;;;;;;8.23;2.50;;;;;;;;;;5092083;28;20065;-88
2024/01/24 12:30:32;;;;;;;;;;;;;;;;;;5091673;28;20044;-86
2024/01/24 12:32:58;;;;;;;10.85;2.85;;;;;;;;;;5072860;28;19923;-86
2024/01/24 12:35:24;;;;;;;5.93;2.15;;;;;;;;;;5089371;28;20181;-88
2024/01/24 12:37:52;;;;;;;13.18;3.50;;;;;;;;;;5078274;28;20043;-88
2024/01/24 12:40:18;;;;;;;8.40;2.70;;;;;;;;;;5096527;28;20087;-88
2024/01/24 12:42:45;;;;;;;10.50;3.95;;;;;;;;;;5096090;28;20036;-90
2024/01/24 12:45:11;;;;;;;10.32;3.22;;;;;;;;;;5080066;28;20072;-88
2024/01/24 12:47:38;;;;;;;15.45;3.97;;;;;;;;;;5081660;28;20047;-86
2024/01/24 12:50:04;;;;;;;8.52;2.33;;;;;;;;;;5095843;28;20086;-88
2024/01/24 12:52:30;;;;;;;14.70;4.82;;;;;;;;;;5078920;28;20044;-89
2024/01/24 12:54:57;;;;;;;12.50;3.25;;;;;;;;;;5081349;28;20449;-88
2024/01/24 12:57:24;;;;;;;9.35;3.63;;;;;;;;;;5093380;28;20043;-90
2024/01/24 12:59:50;;;;;;;15.43;3.85;;;;;;;;;;5094176;28;20040;-88
2024/01/24 13:02:20;;;;;;;10.98;3.80;;;;;;;;;;5090985;28;20115;-90
2024/01/24 13:04:46;;;;;;;9.60;3.65;;;;;;;;;;5073078;28;20036;-87
2024/01/24 13:07:14;;;;;;;17.67;4.35;;;;;;;;;;5090634;28;20497;-91
2024/01/24 13:09:41;;;;;;;10.68;2.97;;;;;;;;;;5090284;28;20121;-90
2024/01/24 13:12:08;;;;;;;8.07;2.40;;;;;;;;;;5073023;28;20072;-87
2024/01/24 13:14:34;;;;;;;8.68;3.05;;;;;;;;;;5092187;28;20456;-89
2024/01/24 13:17:03;;;;;;;14.48;2.25;;;;;;;;;;5077482;28;20040;-87
2024/01/24 13:19:32;;;;;;;8.55;3.55;;;;;;;;;;5094550;28;20047;-88
2024/01/24 13:21:59;;;;;;;11.23;4.05;;;;;;;;;;5088133;28;20047;-88
2024/01/24 13:24:28;;;;;;;11.93;3.45;;;;;;;;;;5092696;28;20044;-87
2024/01/24 13:26:54;;;;;;;10.48;2.88;;;;;;;;;;5073580;28;20040;-87
2024/01/24 13:29:20;;;;;;;20.63;3.70;;;;;;;;;;5073116;28;20040;-86
2024/01/24 13:31:47;;;;;;;12.52;2.97;;;;;;;;;;5088938;28;20170;-89
2024/01/24 13:34:13;;;;;;;11.85;3.08;;;;;;;;;;5090018;28;20037;-88
2024/01/24 13:36:40;;;;;;;5.78;2.75;;;;;;;;;;5090851;28;20553;-89
2024/01/24 13:39:12;;;;;;;11.65;2.78;;;;;;;;;;5072579;28;20376;-87
2024/01/24 13:41:38;;;;;;;12.57;3.13;;;;;;;;;;5089355;28;20128;-87
2024/01/24 13:44:04;;;;;;;14.75;3.67;;;;;;;;;;5094938;28;20395;-87
2024/01/24 13:46:30;;;;;;;9.88;4.03;;;;;;;;;;5093778;28;20086;-91
2024/01/24 13:48:56;;;;;;;9.07;2.85;;;;;;;;;;5091119;28;20044;-90
2024/01/24 13:51:22;;;;;;;9.32;2.47;;;;;;;;;;5075944;28;20484;-89
2024/01/24 13:53:48;;;;;;;6.05;2.08;;;;;;;;;;5091075;28;20085;-88
2024/01/24 13:56:14;;;;;;;6.43;2.25;;;;;;;;;;5094115;28;20059;-89
2024/01/24 13:58:40;;;;;;;15.05;4.18;;;;;;;;;;5093153;28;20032;-90
2024/01/24 14:01:07;;;;;;;7.18;2.63;;;;;;;;;;5097766;28;20036;-89
2024/01/24 14:03:33;;;;;;;16.83;4.28;;;;;;;;;;5094085;28;20058;-88
2024/01/24 14:06:00;;;;;;;13.05;3.42;;;;;;;;;;5077314;28;20075;-86
2024/01/24 14:08:26;;;;;;;15.55;3.10;;;;;;;;;;5077349;28;20059;-87
2024/01/24 14:10:52;;;;;;;16.58;4.55;;;;;;;;;;5095638;28;20040;-92
2024/01/24 14:13:19;;;;;;;8.35;3.03;;;;;;;;;;5080448;28;20062;-89
2024/01/24 14:15:45;;;;;;;15.85;4.55;;;;;;;;;;5095702;28;20226;-88
2024/01/24 14:18:11;;;;;;;10.25;2.25;;;;;;;;;;5094209;28;20377;-89
2024/01/24 14:20:38;;;;;;;11.77;3.75;;;;;;;;;;5076650;28;20037;-88
2024/01/24 14:23:06;;;;;;;9.80;2.08;;;;;;;;;;5096193;28;20054;-88
2024/01/24 14:25:32;;;;;;;9.90;2.00;;;;;;;;;;5079398;28;20039;-87
2024/01/24 14:27:58;;;;;;;7.93;2.90;;;;;;;;;;5095693;28;20158;-89
2024/01/24 14:30:25;;;;;;;10.52;3.20;;;;;;;;;;5077504;28;20516;-89
2024/01/24 14:32:51;;;;;;;4.47;1.67;;;;;;;;;;5076724;28;20071;-88
2024/01/24 14:35:17;;;;;;;17.92;3.88;;;;;;;;;;5076086;28;20040;-91